sensor_id;sensor_type;location;lat;lon;timestamp;temperature;humidity
4922;DHT22;16625;53.624;10.106;2022-12-01T00:01:19;4.00;99.90
4922;DHT22;16625;53.624;10.106;2022-12-01T00:03:47;4.60;99.90
4922;DHT22;16625;53.624;10.106;2022-12-01T00:06:15;3.90;99.90
4922;DHT22;16625;53.624;10.106;2022-12-01T00:08:45;3.90;99.90
4922;DHT22;16625;53.624;10.106;2022-12-01T00:11:37;3.30;99.90
4922;DHT22;16625;53.624;10.106;2022-12-01T00:14:03;4.20;99.90
4922;DHT22;16625;53.624;10.106;2022-12-01T00:16:31;4.80;99.90
4922;DHT22;16625;53.624;10.106;2022-12-01T00:18:58;4.00;99.90
4922;DHT22;16625;53.624;10.106;2022-12-01T00:21:26;4.00;99.90
4922;DHT22;16625;53.624;10.106;2022-12-01T00:23:56;4.70;99.90
4922;DHT22;16625;53.624;10.106;2022-12-01T00:26:25;4.70;99.90
4922;DHT22;16625;53.624;10.106;2022-12-01T00:28:53;4.00;99.90
4922;DHT22;16625;53.624;10.106;2022-12-01T00:31:21;5.20;99.90
4922;DHT22;16625;53.624;10.106;2022-12-01T00:33:48;3.90;99.90
4922;DHT22;16625;53.624;10.106;2022-12-01T00:36:15;3.90;99.90
4922;DHT22;16625;53.624;10.106;2022-12-01T00:38:42;4.00;99.90
4922;DHT22;16625;53.624;10.106;2022-12-01T00:41:10;5.10;99.90
4922;DHT22;16625;53.624;10.106;2022-12-01T00:43:37;3.90;99.90
4922;DHT22;16625;53.624;10.106;2022-12-01T00:46:05;4.00;99.90
4922;DHT22;16625;53.624;10.106;2022-12-01T00:48:32;4.00;99.90
4922;DHT22;16625;53.624;10.106;2022-12-01T00:51:02;3.90;99.90
4922;DHT22;16625;53.624;10.106;2022-12-01T00:53:29;3.90;99.90
4922;DHT22;16625;53.624;10.106;2022-12-01T00:55:55;5.10;99.90
4922;DHT22;16625;53.624;10.106;2022-12-01T00:58:24;3.90;99.90
4922;DHT22;16625;53.624;10.106;2022-12-01T01:00:56;5.00;99.90
4922;DHT22;16625;53.624;10.106;2022-12-01T01:03:23;3.90;99.90
4922;DHT22;16625;53.624;10.106;2022-12-01T01:05:50;5.40;99.90
4922;DHT22;16625;53.624;10.106;2022-12-01T01:08:17;3.90;99.90
4922;DHT22;16625;53.624;10.106;2022-12-01T01:10:45;3.90;99.90
4922;DHT22;16625;53.624;10.106;2022-12-01T01:13:13;3.90;99.90
4922;DHT22;16625;53.624;10.106;2022-12-01T01:15:42;3.90;99.90
4922;DHT22;16625;53.624;10.106;2022-12-01T01:18:09;3.80;99.90
4922;DHT22;16625;53.624;10.106;2022-12-01T01:20:36;3.90;99.90
4922;DHT22;16625;53.624;10.106;2022-12-01T01:23:04;3.90;99.90
4922;DHT22;16625;53.624;10.106;2022-12-01T01:25:31;3.90;99.90
4922;DHT22;16625;53.624;10.106;2022-12-01T01:27:57;3.80;99.90
4922;DHT22;16625;53.624;10.106;2022-12-01T01:30:24;3.80;99.90
4922;DHT22;16625;53.624;10.106;2022-12-01T01:32:53;3.80;99.90
4922;DHT22;16625;53.624;10.106;2022-12-01T01:35:19;3.90;99.90
4922;DHT22;16625;53.624;10.106;2022-12-01T01:37:46;3.90;99.90
4922;DHT22;16625;53.624;10.106;2022-12-01T01:40:14;3.90;99.90
4922;DHT22;16625;53.624;10.106;2022-12-01T01:42:41;3.90;99.90
4922;DHT22;16625;53.624;10.106;2022-12-01T01:45:18;3.90;99.90
4922;DHT22;16625;53.624;10.106;2022-12-01T01:47:46;4.80;99.90
4922;DHT22;16625;53.624;10.106;2022-12-01T01:50:18;3.90;99.90
4922;DHT22;16625;53.624;10.106;2022-12-01T01:52:54;3.90;99.90
4922;DHT22;16625;53.624;10.106;2022-12-01T01:55:21;3.90;99.90
4922;DHT22;16625;53.624;10.106;2022-12-01T01:57:48;5.10;99.90
4922;DHT22;16625;53.624;10.106;2022-12-01T02:00:17;3.90;99.90
4922;DHT22;16625;53.624;10.106;2022-12-01T02:02:45;3.90;99.90
4922;DHT22;16625;53.624;10.106;2022-12-01T02:05:18;3.90;99.90
4922;DHT22;16625;53.624;10.106;2022-12-01T02:07:46;3.90;99.90
4922;DHT22;16625;53.624;10.106;2022-12-01T02:10:14;3.90;99.90
4922;DHT22;16625;53.624;10.106;2022-12-01T02:12:55;3.90;99.90
4922;DHT22;16625;53.624;10.106;2022-12-01T02:15:29;5.20;99.90
4922;DHT22;16625;53.624;10.106;2022-12-01T02:18:06;3.90;99.90
4922;DHT22;16625;53.624;10.106;2022-12-01T02:24:02;3.90;99.90
4922;DHT22;16625;53.624;10.106;2022-12-01T02:26:43;3.80;99.90
4922;DHT22;16625;53.624;10.106;2022-12-01T02:29:37;3.90;99.90
4922;DHT22;16625;53.624;10.106;2022-12-01T02:32:13;3.80;99.90
4922;DHT22;16625;53.624;10.106;2022-12-01T02:34:43;3.80;99.90
4922;DHT22;16625;53.624;10.106;2022-12-01T02:37:18;3.90;99.90
4922;DHT22;16625;53.624;10.106;2022-12-01T02:39:53;3.70;99.90
4922;DHT22;16625;53.624;10.106;2022-12-01T02:42:35;3.80;99.90
4922;DHT22;16625;53.624;10.106;2022-12-01T02:45:21;3.80;99.90
4922;DHT22;16625;53.624;10.106;2022-12-01T02:47:53;4.90;99.90
4922;DHT22;16625;53.624;10.106;2022-12-01T02:50:21;3.70;99.90
4922;DHT22;16625;53.624;10.106;2022-12-01T02:52:49;3.80;99.90
4922;DHT22;16625;53.624;10.106;2022-12-01T02:55:16;3.80;99.90
4922;DHT22;16625;53.624;10.106;2022-12-01T02:57:43;3.10;99.90
4922;DHT22;16625;53.624;10.106;2022-12-01T03:00:11;4.30;99.90
4922;DHT22;16625;53.624;10.106;2022-12-01T03:02:47;3.60;99.90
4922;DHT22;16625;53.624;10.106;2022-12-01T03:05:24;5.00;99.90
4922;DHT22;16625;53.624;10.106;2022-12-01T03:08:00;3.80;99.90
4922;DHT22;16625;53.624;10.106;2022-12-01T03:10:33;3.70;99.90
4922;DHT22;16625;53.624;10.106;2022-12-01T03:13:12;3.70;99.90
4922;DHT22;16625;53.624;10.106;2022-12-01T03:15:47;3.70;99.90
4922;DHT22;16625;53.624;10.106;2022-12-01T03:18:24;3.70;99.90
4922;DHT22;16625;53.624;10.106;2022-12-01T03:20:57;3.70;99.90
4922;DHT22;16625;53.624;10.106;2022-12-01T03:23:27;3.70;99.90
4922;DHT22;16625;53.624;10.106;2022-12-01T03:25:56;4.90;99.90
4922;DHT22;16625;53.624;10.106;2022-12-01T03:28:28;3.70;99.90
4922;DHT22;16625;53.624;10.106;2022-12-01T03:30:59;5.00;99.90
4922;DHT22;16625;53.624;10.106;2022-12-01T03:33:31;3.70;99.90
4922;DHT22;16625;53.624;10.106;2022-12-01T03:36:04;3.70;99.90
4922;DHT22;16625;53.624;10.106;2022-12-01T03:38:35;3.70;99.90
4922;DHT22;16625;53.624;10.106;2022-12-01T03:41:04;3.70;99.90
4922;DHT22;16625;53.624;10.106;2022-12-01T03:43:35;3.70;99.90
4922;DHT22;16625;53.624;10.106;2022-12-01T03:46:08;3.70;99.90
4922;DHT22;16625;53.624;10.106;2022-12-01T03:48:39;3.70;99.90
4922;DHT22;16625;53.624;10.106;2022-12-01T03:51:12;4.50;99.90
4922;DHT22;16625;53.624;10.106;2022-12-01T03:53:48;3.70;99.90
4922;DHT22;16625;53.624;10.106;2022-12-01T03:56:19;3.60;99.90
4922;DHT22;16625;53.624;10.106;2022-12-01T03:58:48;3.60;99.90
4922;DHT22;16625;53.624;10.106;2022-12-01T04:01:16;3.70;99.90
4922;DHT22;16625;53.624;10.106;2022-12-01T04:03:45;3.60;99.90
4922;DHT22;16625;53.624;10.106;2022-12-01T04:06:13;3.60;99.90
4922;DHT22;16625;53.624;10.106;2022-12-01T04:08:40;3.60;99.90
4922;DHT22;16625;53.624;10.106;2022-12-01T04:11:07;3.60;99.90
4922;DHT22;16625;53.624;10.106;2022-12-01T04:13:48;3.60;99.90
4922;DHT22;16625;53.624;10.106;2022-12-01T04:16:15;3.60;99.90
4922;DHT22;16625;53.624;10.106;2022-12-01T04:18:41;3.60;99.90
4922;DHT22;16625;53.624;10.106;2022-12-01T04:21:08;3.50;99.90
4922;DHT22;16625;53.624;10.106;2022-12-01T04:23:36;3.60;99.90
4922;DHT22;16625;53.624;10.106;2022-12-01T04:26:21;3.70;99.90
4922;DHT22;16625;53.624;10.106;2022-12-01T04:28:47;3.60;99.90
4922;DHT22;16625;53.624;10.106;2022-12-01T04:31:14;3.60;99.90
4922;DHT22;16625;53.624;10.106;2022-12-01T04:33:41;3.60;99.90
4922;DHT22;16625;53.624;10.106;2022-12-01T04:36:08;3.60;99.90
4922;DHT22;16625;53.624;10.106;2022-12-01T04:38:37;3.60;99.90
4922;DHT22;16625;53.624;10.106;2022-12-01T04:41:08;3.60;99.90
4922;DHT22;16625;53.624;10.106;2022-12-01T04:43:35;3.60;99.90
4922;DHT22;16625;53.624;10.106;2022-12-01T04:46:01;3.60;99.90
4922;DHT22;16625;53.624;10.106;2022-12-01T04:48:28;4.60;99.90
4922;DHT22;16625;53.624;10.106;2022-12-01T04:50:55;3.60;99.90
4922;DHT22;16625;53.624;10.106;2022-12-01T04:53:22;4.70;99.90
4922;DHT22;16625;53.624;10.106;2022-12-01T04:55:50;3.60;99.90
4922;DHT22;16625;53.624;10.106;2022-12-01T04:58:16;3.60;99.90
4922;DHT22;16625;53.624;10.106;2022-12-01T05:00:43;3.60;99.90
4922;DHT22;16625;53.624;10.106;2022-12-01T05:03:10;3.60;99.90
4922;DHT22;16625;53.624;10.106;2022-12-01T05:05:38;3.60;99.90
4922;DHT22;16625;53.624;10.106;2022-12-01T05:08:04;3.60;99.90
4922;DHT22;16625;53.624;10.106;2022-12-01T05:10:33;3.60;99.90
4922;DHT22;16625;53.624;10.106;2022-12-01T05:13:02;3.60;99.90
4922;DHT22;16625;53.624;10.106;2022-12-01T05:15:28;3.60;99.90
4922;DHT22;16625;53.624;10.106;2022-12-01T05:17:55;3.70;99.90
4922;DHT22;16625;53.624;10.106;2022-12-01T05:20:23;3.70;99.90
4922;DHT22;16625;53.624;10.106;2022-12-01T05:23:08;3.80;99.90
4922;DHT22;16625;53.624;10.106;2022-12-01T05:25:35;3.60;99.90
4922;DHT22;16625;53.624;10.106;2022-12-01T05:28:04;4.10;99.90
4922;DHT22;16625;53.624;10.106;2022-12-01T05:30:31;3.70;99.90
4922;DHT22;16625;53.624;10.106;2022-12-01T05:32:58;4.00;99.90
4922;DHT22;16625;53.624;10.106;2022-12-01T05:35:24;3.70;99.90
4922;DHT22;16625;53.624;10.106;2022-12-01T05:37:51;3.70;99.90
4922;DHT22;16625;53.624;10.106;2022-12-01T05:40:18;4.60;99.90
4922;DHT22;16625;53.624;10.106;2022-12-01T05:42:45;3.60;99.90
4922;DHT22;16625;53.624;10.106;2022-12-01T05:45:13;3.60;99.90
4922;DHT22;16625;53.624;10.106;2022-12-01T05:47:40;3.60;99.90
4922;DHT22;16625;53.624;10.106;2022-12-01T05:50:07;3.70;99.90
4922;DHT22;16625;53.624;10.106;2022-12-01T05:52:34;3.60;99.90
4922;DHT22;16625;53.624;10.106;2022-12-01T05:55:02;3.70;99.90
4922;DHT22;16625;53.624;10.106;2022-12-01T05:57:30;4.60;99.90
4922;DHT22;16625;53.624;10.106;2022-12-01T05:59:56;3.80;99.90
4922;DHT22;16625;53.624;10.106;2022-12-01T06:02:25;3.90;99.90
4922;DHT22;16625;53.624;10.106;2022-12-01T06:04:52;4.00;99.90
4922;DHT22;16625;53.624;10.106;2022-12-01T06:07:18;5.10;99.90
4922;DHT22;16625;53.624;10.106;2022-12-01T06:09:45;4.00;99.90
4922;DHT22;16625;53.624;10.106;2022-12-01T06:12:12;4.40;99.90
4922;DHT22;16625;53.624;10.106;2022-12-01T06:14:38;3.80;99.90
4922;DHT22;16625;53.624;10.106;2022-12-01T06:17:12;3.80;99.90
4922;DHT22;16625;53.624;10.106;2022-12-01T06:19:40;3.80;99.90
4922;DHT22;16625;53.624;10.106;2022-12-01T06:22:07;3.70;99.90
4922;DHT22;16625;53.624;10.106;2022-12-01T06:24:34;3.70;99.90
4922;DHT22;16625;53.624;10.106;2022-12-01T06:27:01;4.00;99.90
4922;DHT22;16625;53.624;10.106;2022-12-01T06:29:28;3.60;99.90
4922;DHT22;16625;53.624;10.106;2022-12-01T06:31:54;3.70;99.90
4922;DHT22;16625;53.624;10.106;2022-12-01T06:34:21;3.60;99.90
4922;DHT22;16625;53.624;10.106;2022-12-01T06:36:49;4.80;99.90
4922;DHT22;16625;53.624;10.106;2022-12-01T06:39:16;3.80;99.90
4922;DHT22;16625;53.624;10.106;2022-12-01T06:41:43;3.80;99.90
4922;DHT22;16625;53.624;10.106;2022-12-01T06:44:10;3.80;99.90
4922;DHT22;16625;53.624;10.106;2022-12-01T06:46:36;4.60;99.90
4922;DHT22;16625;53.624;10.106;2022-12-01T06:49:03;3.80;99.90
4922;DHT22;16625;53.624;10.106;2022-12-01T06:51:30;3.80;99.90
4922;DHT22;16625;53.624;10.106;2022-12-01T06:54:00;5.40;99.90
4922;DHT22;16625;53.624;10.106;2022-12-01T06:56:26;3.80;99.90
4922;DHT22;16625;53.624;10.106;2022-12-01T06:58:53;3.80;99.90
4922;DHT22;16625;53.624;10.106;2022-12-01T07:01:20;3.80;99.90
4922;DHT22;16625;53.624;10.106;2022-12-01T07:03:49;3.70;99.90
4922;DHT22;16625;53.624;10.106;2022-12-01T07:06:18;3.70;99.90
4922;DHT22;16625;53.624;10.106;2022-12-01T07:08:44;3.60;99.90
4922;DHT22;16625;53.624;10.106;2022-12-01T07:11:14;4.60;99.90
4922;DHT22;16625;53.624;10.106;2022-12-01T07:13:42;3.60;99.90
4922;DHT22;16625;53.624;10.106;2022-12-01T07:16:10;3.60;99.90
4922;DHT22;16625;53.624;10.106;2022-12-01T07:18:38;3.70;99.90
4922;DHT22;16625;53.624;10.106;2022-12-01T07:21:09;3.70;99.90
4922;DHT22;16625;53.624;10.106;2022-12-01T07:23:44;3.80;99.90
4922;DHT22;16625;53.624;10.106;2022-12-01T07:28:44;3.60;99.90
4922;DHT22;16625;53.624;10.106;2022-12-01T07:31:13;4.40;99.90
4922;DHT22;16625;53.624;10.106;2022-12-01T07:33:44;3.20;99.90
4922;DHT22;16625;53.624;10.106;2022-12-01T07:36:23;4.40;99.90
4922;DHT22;16625;53.624;10.106;2022-12-01T07:38:52;3.60;99.90
4922;DHT22;16625;53.624;10.106;2022-12-01T07:41:19;4.90;99.90
4922;DHT22;16625;53.624;10.106;2022-12-01T07:43:47;3.60;99.90
4922;DHT22;16625;53.624;10.106;2022-12-01T07:46:16;3.50;99.90
4922;DHT22;16625;53.624;10.106;2022-12-01T07:48:43;5.10;99.90
4922;DHT22;16625;53.624;10.106;2022-12-01T07:51:12;4.80;99.90
4922;DHT22;16625;53.624;10.106;2022-12-01T07:53:40;3.80;99.90
4922;DHT22;16625;53.624;10.106;2022-12-01T07:56:07;3.80;99.90
4922;DHT22;16625;53.624;10.106;2022-12-01T07:58:34;3.80;99.90
4922;DHT22;16625;53.624;10.106;2022-12-01T08:01:06;3.50;99.90
4922;DHT22;16625;53.624;10.106;2022-12-01T08:03:34;5.10;99.90
4922;DHT22;16625;53.624;10.106;2022-12-01T08:06:02;3.70;99.90
4922;DHT22;16625;53.624;10.106;2022-12-01T08:08:31;4.70;99.90
4922;DHT22;16625;53.624;10.106;2022-12-01T08:11:01;4.70;99.90
4922;DHT22;16625;53.624;10.106;2022-12-01T08:13:29;3.60;99.90
4922;DHT22;16625;53.624;10.106;2022-12-01T08:15:56;5.30;99.90
4922;DHT22;16625;53.624;10.106;2022-12-01T08:18:25;4.60;99.90
4922;DHT22;16625;53.624;10.106;2022-12-01T08:20:55;4.60;99.90
4922;DHT22;16625;53.624;10.106;2022-12-01T08:23:23;3.70;99.90
4922;DHT22;16625;53.624;10.106;2022-12-01T08:25:50;4.10;99.90
4922;DHT22;16625;53.624;10.106;2022-12-01T08:28:18;3.80;99.90
4922;DHT22;16625;53.624;10.106;2022-12-01T08:30:45;3.90;99.90
4922;DHT22;16625;53.624;10.106;2022-12-01T08:33:12;4.90;99.90
4922;DHT22;16625;53.624;10.106;2022-12-01T08:35:41;5.40;99.90
4922;DHT22;16625;53.624;10.106;2022-12-01T08:38:08;4.10;99.90
4922;DHT22;16625;53.624;10.106;2022-12-01T08:40:35;4.00;99.90
4922;DHT22;16625;53.624;10.106;2022-12-01T08:43:02;4.00;99.90
4922;DHT22;16625;53.624;10.106;2022-12-01T08:45:29;4.00;99.90
4922;DHT22;16625;53.624;10.106;2022-12-01T08:47:56;3.80;99.90
4922;DHT22;16625;53.624;10.106;2022-12-01T08:50:24;3.80;99.90
4922;DHT22;16625;53.624;10.106;2022-12-01T08:52:52;5.40;99.90
4922;DHT22;16625;53.624;10.106;2022-12-01T08:55:20;4.30;99.90
4922;DHT22;16625;53.624;10.106;2022-12-01T08:57:47;4.10;99.90
4922;DHT22;16625;53.624;10.106;2022-12-01T09:00:15;4.10;23.50
4922;DHT22;16625;53.624;10.106;2022-12-01T09:02:44;4.10;1.00
4922;DHT22;16625;53.624;10.106;2022-12-01T09:05:17;4.10;27.90
4922;DHT22;16625;53.624;10.106;2022-12-01T09:07:43;4.10;79.40
4922;DHT22;16625;53.624;10.106;2022-12-01T09:10:33;4.10;16.80
4922;DHT22;16625;53.624;10.106;2022-12-01T09:13:00;4.10;29.20
4922;DHT22;16625;53.624;10.106;2022-12-01T09:15:26;4.20;1.70
4922;DHT22;16625;53.624;10.106;2022-12-01T09:17:53;4.20;1.00
4922;DHT22;16625;53.624;10.106;2022-12-01T09:20:23;4.20;1.00
4922;DHT22;16625;53.624;10.106;2022-12-01T09:22:49;4.20;1.00
4922;DHT22;16625;53.624;10.106;2022-12-01T09:25:18;5.00;1.00
4922;DHT22;16625;53.624;10.106;2022-12-01T09:27:47;4.30;99.90
4922;DHT22;16625;53.624;10.106;2022-12-01T09:30:14;3.60;1.00
4922;DHT22;16625;53.624;10.106;2022-12-01T09:32:55;4.30;1.00
4922;DHT22;16625;53.624;10.106;2022-12-01T09:35:22;4.40;1.00
4922;DHT22;16625;53.624;10.106;2022-12-01T09:37:55;3.80;1.00
4922;DHT22;16625;53.624;10.106;2022-12-01T09:40:29;4.50;99.90
4922;DHT22;16625;53.624;10.106;2022-12-01T09:43:00;4.40;99.90
4922;DHT22;16625;53.624;10.106;2022-12-01T09:45:33;4.10;99.90
4922;DHT22;16625;53.624;10.106;2022-12-01T09:48:04;5.00;99.90
4922;DHT22;16625;53.624;10.106;2022-12-01T09:50:32;4.40;99.90
4922;DHT22;16625;53.624;10.106;2022-12-01T09:53:02;4.60;1.00
4922;DHT22;16625;53.624;10.106;2022-12-01T09:55:32;5.90;1.00
4922;DHT22;16625;53.624;10.106;2022-12-01T09:58:03;4.50;1.00
4922;DHT22;16625;53.624;10.106;2022-12-01T10:00:34;5.40;8.30
4922;DHT22;16625;53.624;10.106;2022-12-01T10:03:16;4.50;1.00
4922;DHT22;16625;53.624;10.106;2022-12-01T10:05:52;4.50;99.90
4922;DHT22;16625;53.624;10.106;2022-12-01T10:08:23;4.30;1.00
4922;DHT22;16625;53.624;10.106;2022-12-01T10:10:55;4.30;99.90
4922;DHT22;16625;53.624;10.106;2022-12-01T10:13:27;4.10;99.90
4922;DHT22;16625;53.624;10.106;2022-12-01T10:15:59;4.20;99.90
4922;DHT22;16625;53.624;10.106;2022-12-01T10:18:43;5.40;99.90
4922;DHT22;16625;53.624;10.106;2022-12-01T10:21:29;4.00;99.90
4922;DHT22;16625;53.624;10.106;2022-12-01T10:24:08;4.10;99.90
4922;DHT22;16625;53.624;10.106;2022-12-01T10:26:49;3.50;99.90
4922;DHT22;16625;53.624;10.106;2022-12-01T10:29:26;3.90;1.00
4922;DHT22;16625;53.624;10.106;2022-12-01T10:31:55;3.80;1.00
4922;DHT22;16625;53.624;10.106;2022-12-01T10:34:24;3.90;1.00
4922;DHT22;16625;53.624;10.106;2022-12-01T10:36:52;5.50;99.90
4922;DHT22;16625;53.624;10.106;2022-12-01T10:39:26;4.00;99.90
4922;DHT22;16625;53.624;10.106;2022-12-01T10:42:00;5.10;1.00
4922;DHT22;16625;53.624;10.106;2022-12-01T10:44:30;3.90;1.00
4922;DHT22;16625;53.624;10.106;2022-12-01T10:46:57;3.90;1.00
4922;DHT22;16625;53.624;10.106;2022-12-01T10:49:34;3.90;1.00
4922;DHT22;16625;53.624;10.106;2022-12-01T10:52:01;3.80;99.90
4922;DHT22;16625;53.624;10.106;2022-12-01T10:54:32;3.80;99.90
4922;DHT22;16625;53.624;10.106;2022-12-01T10:57:00;3.80;1.00
4922;DHT22;16625;53.624;10.106;2022-12-01T10:59:48;3.80;1.00
4922;DHT22;16625;53.624;10.106;2022-12-01T11:02:34;3.70;99.90
4922;DHT22;16625;53.624;10.106;2022-12-01T11:05:04;4.30;1.00
4922;DHT22;16625;53.624;10.106;2022-12-01T11:07:34;4.50;99.90
4922;DHT22;16625;53.624;10.106;2022-12-01T11:10:18;4.80;72.00
4922;DHT22;16625;53.624;10.106;2022-12-01T11:12:52;3.70;99.90
4922;DHT22;16625;53.624;10.106;2022-12-01T11:15:25;3.60;99.90
4922;DHT22;16625;53.624;10.106;2022-12-01T11:17:58;3.60;1.00
4922;DHT22;16625;53.624;10.106;2022-12-01T11:20:31;3.60;1.00
4922;DHT22;16625;53.624;10.106;2022-12-01T11:23:22;3.00;1.00
4922;DHT22;16625;53.624;10.106;2022-12-01T11:26:00;3.40;1.00
4922;DHT22;16625;53.624;10.106;2022-12-01T11:28:29;4.20;1.00
4922;DHT22;16625;53.624;10.106;2022-12-01T11:31:00;3.40;1.00
4922;DHT22;16625;53.624;10.106;2022-12-01T11:33:36;3.40;1.00
4922;DHT22;16625;53.624;10.106;2022-12-01T11:36:07;3.30;1.00
4922;DHT22;16625;53.624;10.106;2022-12-01T11:38:35;3.30;1.00
4922;DHT22;16625;53.624;10.106;2022-12-01T11:41:03;3.60;1.00
4922;DHT22;16625;53.624;10.106;2022-12-01T11:43:33;3.00;1.00
4922;DHT22;16625;53.624;10.106;2022-12-01T11:46:08;3.30;1.00
4922;DHT22;16625;53.624;10.106;2022-12-01T11:48:36;4.20;1.00
4922;DHT22;16625;53.624;10.106;2022-12-01T11:51:07;4.00;1.00
4922;DHT22;16625;53.624;10.106;2022-12-01T11:53:40;3.10;1.00
4922;DHT22;16625;53.624;10.106;2022-12-01T11:56:17;3.20;1.00
4922;DHT22;16625;53.624;10.106;2022-12-01T11:58:48;3.10;1.00
4922;DHT22;16625;53.624;10.106;2022-12-01T12:01:26;3.20;1.00
4922;DHT22;16625;53.624;10.106;2022-12-01T12:04:11;3.80;1.00
4922;DHT22;16625;53.624;10.106;2022-12-01T12:06:49;3.70;1.00
4922;DHT22;16625;53.624;10.106;2022-12-01T12:09:37;3.30;1.00
4922;DHT22;16625;53.624;10.106;2022-12-01T12:12:15;3.10;1.00
4922;DHT22;16625;53.624;10.106;2022-12-01T12:14:53;3.40;99.90
4922;DHT22;16625;53.624;10.106;2022-12-01T12:17:42;3.80;99.90
4922;DHT22;16625;53.624;10.106;2022-12-01T12:20:26;3.20;99.90
4922;DHT22;16625;53.624;10.106;2022-12-01T12:23:03;3.10;1.00
4922;DHT22;16625;53.624;10.106;2022-12-01T12:25:54;3.10;1.00
4922;DHT22;16625;53.624;10.106;2022-12-01T12:28:33;4.00;1.00
4922;DHT22;16625;53.624;10.106;2022-12-01T12:31:09;3.10;1.00
4922;DHT22;16625;53.624;10.106;2022-12-01T12:34:04;3.10;1.00
4922;DHT22;16625;53.624;10.106;2022-12-01T12:36:43;3.10;1.00
4922;DHT22;16625;53.624;10.106;2022-12-01T12:39:27;3.20;18.40
4922;DHT22;16625;53.624;10.106;2022-12-01T12:41:55;3.30;1.00
4922;DHT22;16625;53.624;10.106;2022-12-01T12:44:41;4.30;1.00
4922;DHT22;16625;53.624;10.106;2022-12-01T12:47:26;3.40;99.90
4922;DHT22;16625;53.624;10.106;2022-12-01T12:50:06;3.40;99.90
4922;DHT22;16625;53.624;10.106;2022-12-01T12:52:37;3.30;99.90
4922;DHT22;16625;53.624;10.106;2022-12-01T12:55:12;3.20;99.90
4922;DHT22;16625;53.624;10.106;2022-12-01T12:57:44;3.50;1.00
4922;DHT22;16625;53.624;10.106;2022-12-01T13:00:16;4.00;1.00
4922;DHT22;16625;53.624;10.106;2022-12-01T13:02:46;3.10;1.00
4922;DHT22;16625;53.624;10.106;2022-12-01T13:05:18;3.10;1.00
4922;DHT22;16625;53.624;10.106;2022-12-01T13:07:50;3.10;1.00
4922;DHT22;16625;53.624;10.106;2022-12-01T13:10:24;3.10;1.00
4922;DHT22;16625;53.624;10.106;2022-12-01T13:12:57;3.00;13.20
4922;DHT22;16625;53.624;10.106;2022-12-01T13:15:25;3.00;96.10
4922;DHT22;16625;53.624;10.106;2022-12-01T13:17:57;3.00;99.90
4922;DHT22;16625;53.624;10.106;2022-12-01T13:20:28;3.10;92.60
4922;DHT22;16625;53.624;10.106;2022-12-01T13:22:58;3.90;74.60
4922;DHT22;16625;53.624;10.106;2022-12-01T13:25:32;3.10;1.00
4922;DHT22;16625;53.624;10.106;2022-12-01T13:28:01;3.20;1.00
4922;DHT22;16625;53.624;10.106;2022-12-01T13:30:28;3.30;1.00
4922;DHT22;16625;53.624;10.106;2022-12-01T13:33:00;3.30;1.00
4922;DHT22;16625;53.624;10.106;2022-12-01T13:35:31;3.30;1.00
4922;DHT22;16625;53.624;10.106;2022-12-01T13:38:20;3.20;1.00
4922;DHT22;16625;53.624;10.106;2022-12-01T13:40:47;3.10;1.00
4922;DHT22;16625;53.624;10.106;2022-12-01T13:43:17;3.10;1.00
4922;DHT22;16625;53.624;10.106;2022-12-01T13:45:46;3.10;1.00
4922;DHT22;16625;53.624;10.106;2022-12-01T13:48:28;3.00;1.00
4922;DHT22;16625;53.624;10.106;2022-12-01T13:51:01;3.70;1.00
4922;DHT22;16625;53.624;10.106;2022-12-01T13:53:31;3.00;1.00
4922;DHT22;16625;53.624;10.106;2022-12-01T13:56:24;3.00;1.00
4922;DHT22;16625;53.624;10.106;2022-12-01T13:58:53;2.90;1.00
4922;DHT22;16625;53.624;10.106;2022-12-01T14:01:43;2.90;1.00
4922;DHT22;16625;53.624;10.106;2022-12-01T14:04:29;2.90;1.00
4922;DHT22;16625;53.624;10.106;2022-12-01T14:07:19;3.40;1.00
4922;DHT22;16625;53.624;10.106;2022-12-01T14:09:48;2.90;2.80
4922;DHT22;16625;53.624;10.106;2022-12-01T14:12:19;2.90;1.00
4922;DHT22;16625;53.624;10.106;2022-12-01T14:14:51;2.90;1.00
4922;DHT22;16625;53.624;10.106;2022-12-01T14:17:25;2.90;1.00
4922;DHT22;16625;53.624;10.106;2022-12-01T14:19:53;2.90;1.00
4922;DHT22;16625;53.624;10.106;2022-12-01T14:22:32;2.90;1.00
4922;DHT22;16625;53.624;10.106;2022-12-01T14:25:01;2.80;1.00
4922;DHT22;16625;53.624;10.106;2022-12-01T14:27:34;2.80;1.00
4922;DHT22;16625;53.624;10.106;2022-12-01T14:33:41;2.90;1.00
4922;DHT22;16625;53.624;10.106;2022-12-01T14:36:18;2.80;1.00
4922;DHT22;16625;53.624;10.106;2022-12-01T14:38:47;2.80;1.00
4922;DHT22;16625;53.624;10.106;2022-12-01T14:41:21;1.90;1.00
4922;DHT22;16625;53.624;10.106;2022-12-01T14:43:52;2.90;1.00
4922;DHT22;16625;53.624;10.106;2022-12-01T14:46:37;2.90;1.00
4922;DHT22;16625;53.624;10.106;2022-12-01T14:49:10;2.80;1.00
4922;DHT22;16625;53.624;10.106;2022-12-01T14:51:42;2.90;1.00
4922;DHT22;16625;53.624;10.106;2022-12-01T14:54:16;4.10;1.00
4922;DHT22;16625;53.624;10.106;2022-12-01T14:56:47;3.00;99.90
4922;DHT22;16625;53.624;10.106;2022-12-01T14:59:19;3.00;1.00
4922;DHT22;16625;53.624;10.106;2022-12-01T15:01:51;4.30;99.90
4922;DHT22;16625;53.624;10.106;2022-12-01T15:04:21;2.90;1.00
4922;DHT22;16625;53.624;10.106;2022-12-01T15:06:53;2.90;1.00
4922;DHT22;16625;53.624;10.106;2022-12-01T15:09:22;2.80;1.00
4922;DHT22;16625;53.624;10.106;2022-12-01T15:11:53;2.90;1.00
4922;DHT22;16625;53.624;10.106;2022-12-01T15:14:30;2.90;1.00
4922;DHT22;16625;53.624;10.106;2022-12-01T15:16:57;2.90;1.00
4922;DHT22;16625;53.624;10.106;2022-12-01T15:19:30;2.90;1.00
4922;DHT22;16625;53.624;10.106;2022-12-01T15:22:01;2.90;1.00
4922;DHT22;16625;53.624;10.106;2022-12-01T15:24:30;3.60;1.00
4922;DHT22;16625;53.624;10.106;2022-12-01T15:30:35;2.90;1.00
4922;DHT22;16625;53.624;10.106;2022-12-01T15:33:08;3.00;99.90
4922;DHT22;16625;53.624;10.106;2022-12-01T15:35:38;2.20;99.90
4922;DHT22;16625;53.624;10.106;2022-12-01T15:38:12;2.10;1.00
4922;DHT22;16625;53.624;10.106;2022-12-01T15:40:45;3.90;1.00
4922;DHT22;16625;53.624;10.106;2022-12-01T15:43:17;1.80;1.00
4922;DHT22;16625;53.624;10.106;2022-12-01T15:45:49;2.20;1.00
4922;DHT22;16625;53.624;10.106;2022-12-01T15:48:28;2.80;1.00
4922;DHT22;16625;53.624;10.106;2022-12-01T15:51:12;2.20;1.00
4922;DHT22;16625;53.624;10.106;2022-12-01T15:53:47;3.60;1.00
4922;DHT22;16625;53.624;10.106;2022-12-01T15:56:35;3.00;1.00
4922;DHT22;16625;53.624;10.106;2022-12-01T15:59:26;2.80;1.00
4922;DHT22;16625;53.624;10.106;2022-12-01T16:01:56;3.90;1.00
4922;DHT22;16625;53.624;10.106;2022-12-01T16:04:25;2.80;1.00
4922;DHT22;16625;53.624;10.106;2022-12-01T16:06:56;3.00;1.00
4922;DHT22;16625;53.624;10.106;2022-12-01T16:09:27;2.80;1.00
4922;DHT22;16625;53.624;10.106;2022-12-01T16:12:21;2.80;1.00
4922;DHT22;16625;53.624;10.106;2022-12-01T16:14:55;2.80;1.00
4922;DHT22;16625;53.624;10.106;2022-12-01T16:17:23;2.90;1.00
4922;DHT22;16625;53.624;10.106;2022-12-01T16:20:22;2.80;1.00
4922;DHT22;16625;53.624;10.106;2022-12-01T16:22:51;2.80;1.00
4922;DHT22;16625;53.624;10.106;2022-12-01T16:25:27;2.80;1.00
4922;DHT22;16625;53.624;10.106;2022-12-01T16:27:56;2.80;1.00
4922;DHT22;16625;53.624;10.106;2022-12-01T16:30:26;2.70;1.00
4922;DHT22;16625;53.624;10.106;2022-12-01T16:33:00;3.00;1.00